sensor_id;sensor_type;location;lat;lon;timestamp;pressure;altitude;pressure_sealevel;temperature;humidity
61900;BME280;47853;55.890;37.664;2023-01-26T00:02:13;99901.19;;;-3.88;100.00
61900;BME280;47853;55.890;37.664;2023-01-26T00:04:39;99908.91;;;-3.87;100.00
61900;BME280;47853;55.890;37.664;2023-01-26T00:07:04;99914.69;;;-3.80;100.00
61900;BME280;47853;55.890;37.664;2023-01-26T00:09:29;99943.38;;;-3.83;100.00
61900;BME280;47853;55.890;37.664;2023-01-26T00:11:55;99893.69;;;-3.74;100.00
61900;BME280;47853;55.890;37.664;2023-01-26T00:14:20;99914.41;;;-3.72;100.00
61900;BME280;47853;55.890;37.664;2023-01-26T00:16:45;99913.97;;;-3.84;100.00
61900;BME280;47853;55.890;37.664;2023-01-26T00:19:11;99909.41;;;-3.99;100.00
61900;BME280;47853;55.890;37.664;2023-01-26T00:21:36;99903.91;;;-3.91;100.00
61900;BME280;47853;55.890;37.664;2023-01-26T00:24:01;99905.72;;;-3.94;100.00
61900;BME280;47853;55.890;37.664;2023-01-26T00:26:27;99909.50;;;-3.80;100.00
61900;BME280;47853;55.890;37.664;2023-01-26T00:28:53;99910.66;;;-3.87;100.00
61900;BME280;47853;55.890;37.664;2023-01-26T00:31:21;99920.78;;;-3.81;100.00
61900;BME280;47853;55.890;37.664;2023-01-26T00:33:47;99927.31;;;-3.93;100.00
61900;BME280;47853;55.890;37.664;2023-01-26T00:36:12;99912.28;;;-3.85;100.00
61900;BME280;47853;55.890;37.664;2023-01-26T00:38:38;99923.25;;;-3.78;100.00
61900;BME280;47853;55.890;37.664;2023-01-26T00:41:04;99918.03;;;-3.56;100.00
61900;BME280;47853;55.890;37.664;2023-01-26T00:43:30;99909.00;;;-3.68;100.00
61900;BME280;47853;55.890;37.664;2023-01-26T00:45:55;99935.56;;;-3.61;100.00
61900;BME280;47853;55.890;37.664;2023-01-26T00:48:21;99920.38;;;-3.70;100.00
61900;BME280;47853;55.890;37.664;2023-01-26T00:50:46;99926.16;;;-3.86;100.00
61900;BME280;47853;55.890;37.664;2023-01-26T00:53:14;99923.16;;;-3.97;100.00
61900;BME280;47853;55.890;37.664;2023-01-26T00:55:39;99908.56;;;-4.00;100.00
61900;BME280;47853;55.890;37.664;2023-01-26T00:58:06;99931.59;;;-3.92;100.00
61900;BME280;47853;55.890;37.664;2023-01-26T01:00:32;99896.00;;;-3.88;100.00
61900;BME280;47853;55.890;37.664;2023-01-26T01:02:58;99919.84;;;-4.01;100.00
61900;BME280;47853;55.890;37.664;2023-01-26T01:05:26;99902.88;;;-3.87;100.00
61900;BME280;47853;55.890;37.664;2023-01-26T01:07:52;99868.06;;;-4.04;100.00
61900;BME280;47853;55.890;37.664;2023-01-26T01:10:17;99892.50;;;-3.87;100.00
61900;BME280;47853;55.890;37.664;2023-01-26T01:12:43;99887.75;;;-3.78;100.00
61900;BME280;47853;55.890;37.664;2023-01-26T01:15:09;99915.53;;;-3.80;100.00
61900;BME280;47853;55.890;37.664;2023-01-26T01:17:34;99903.84;;;-3.90;100.00
61900;BME280;47853;55.890;37.664;2023-01-26T01:20:00;99905.44;;;-3.65;100.00
61900;BME280;47853;55.890;37.664;2023-01-26T01:22:25;99930.28;;;-3.59;100.00
61900;BME280;47853;55.890;37.664;2023-01-26T01:24:50;99912.22;;;-3.83;100.00
61900;BME280;47853;55.890;37.664;2023-01-26T01:27:16;99910.47;;;-3.83;100.00
61900;BME280;47853;55.890;37.664;2023-01-26T01:29:41;99914.22;;;-3.90;100.00
61900;BME280;47853;55.890;37.664;2023-01-26T01:32:06;99904.06;;;-3.74;100.00
61900;BME280;47853;55.890;37.664;2023-01-26T01:34:32;99898.81;;;-3.72;100.00
61900;BME280;47853;55.890;37.664;2023-01-26T01:36:57;99894.97;;;-3.84;100.00
61900;BME280;47853;55.890;37.664;2023-01-26T01:39:22;99925.50;;;-3.91;100.00
61900;BME280;47853;55.890;37.664;2023-01-26T01:41:48;99905.91;;;-3.98;100.00
61900;BME280;47853;55.890;37.664;2023-01-26T01:44:19;99909.44;;;-3.79;100.00
61900;BME280;47853;55.890;37.664;2023-01-26T01:46:53;99909.97;;;-3.70;100.00
61900;BME280;47853;55.890;37.664;2023-01-26T01:49:37;99899.19;;;-3.82;100.00
61900;BME280;47853;55.890;37.664;2023-01-26T01:52:19;99903.22;;;-3.74;100.00
61900;BME280;47853;55.890;37.664;2023-01-26T01:54:49;99892.16;;;-3.80;100.00
61900;BME280;47853;55.890;37.664;2023-01-26T01:57:20;99915.13;;;-3.91;100.00
61900;BME280;47853;55.890;37.664;2023-01-26T01:59:52;99882.28;;;-3.92;100.00
61900;BME280;47853;55.890;37.664;2023-01-26T02:02:19;99883.22;;;-3.93;100.00
61900;BME280;47853;55.890;37.664;2023-01-26T02:04:45;99883.84;;;-3.88;100.00
61900;BME280;47853;55.890;37.664;2023-01-26T02:07:10;99879.56;;;-3.89;100.00
61900;BME280;47853;55.890;37.664;2023-01-26T02:09:37;99882.25;;;-3.90;100.00
61900;BME280;47853;55.890;37.664;2023-01-26T02:12:05;99854.88;;;-3.98;100.00
61900;BME280;47853;55.890;37.664;2023-01-26T02:14:33;99859.28;;;-3.79;100.00
61900;BME280;47853;55.890;37.664;2023-01-26T02:16:58;99860.56;;;-3.69;100.00
61900;BME280;47853;55.890;37.664;2023-01-26T02:19:41;99867.91;;;-3.58;100.00
61900;BME280;47853;55.890;37.664;2023-01-26T02:24:50;99882.69;;;-3.81;100.00
61900;BME280;47853;55.890;37.664;2023-01-26T02:27:16;99866.81;;;-3.73;100.00
61900;BME280;47853;55.890;37.664;2023-01-26T02:29:42;99853.66;;;-3.68;100.00
61900;BME280;47853;55.890;37.664;2023-01-26T02:32:07;99845.97;;;-3.51;100.00
61900;BME280;47853;55.890;37.664;2023-01-26T02:34:32;99859.53;;;-3.65;100.00
61900;BME280;47853;55.890;37.664;2023-01-26T02:36:58;99843.53;;;-3.74;100.00
61900;BME280;47853;55.890;37.664;2023-01-26T02:39:44;99837.34;;;-3.92;100.00
61900;BME280;47853;55.890;37.664;2023-01-26T02:42:12;99846.47;;;-3.84;100.00
61900;BME280;47853;55.890;37.664;2023-01-26T02:44:39;99842.97;;;-3.83;100.00
61900;BME280;47853;55.890;37.664;2023-01-26T02:47:17;99837.66;;;-3.80;100.00
61900;BME280;47853;55.890;37.664;2023-01-26T02:49:43;99828.97;;;-3.79;100.00
61900;BME280;47853;55.890;37.664;2023-01-26T02:52:08;99843.56;;;-3.76;100.00
61900;BME280;47853;55.890;37.664;2023-01-26T02:54:34;99847.81;;;-3.73;100.00
61900;BME280;47853;55.890;37.664;2023-01-26T02:57:00;99840.00;;;-3.53;100.00
61900;BME280;47853;55.890;37.664;2023-01-26T02:59:25;99844.81;;;-3.85;100.00
61900;BME280;47853;55.890;37.664;2023-01-26T03:01:51;99823.97;;;-3.62;100.00
61900;BME280;47853;55.890;37.664;2023-01-26T03:04:17;99840.78;;;-3.71;100.00
61900;BME280;47853;55.890;37.664;2023-01-26T03:06:43;99832.28;;;-3.75;100.00
61900;BME280;47853;55.890;37.664;2023-01-26T03:09:08;99818.56;;;-3.79;100.00
61900;BME280;47853;55.890;37.664;2023-01-26T03:11:33;99819.34;;;-3.76;100.00
61900;BME280;47853;55.890;37.664;2023-01-26T03:13:58;99833.47;;;-3.82;100.00
61900;BME280;47853;55.890;37.664;2023-01-26T03:16:24;99826.97;;;-3.72;100.00
61900;BME280;47853;55.890;37.664;2023-01-26T03:18:49;99833.47;;;-3.82;100.00
61900;BME280;47853;55.890;37.664;2023-01-26T03:21:15;99843.72;;;-3.79;100.00
61900;BME280;47853;55.890;37.664;2023-01-26T03:23:41;99826.25;;;-3.75;100.00
61900;BME280;47853;55.890;37.664;2023-01-26T03:26:09;99834.06;;;-3.75;100.00
61900;BME280;47853;55.890;37.664;2023-01-26T03:28:34;99825.72;;;-3.84;100.00
61900;BME280;47853;55.890;37.664;2023-01-26T03:31:00;99833.84;;;-3.71;100.00
61900;BME280;47853;55.890;37.664;2023-01-26T03:33:25;99841.44;;;-3.66;100.00
61900;BME280;47853;55.890;37.664;2023-01-26T03:35:52;99817.03;;;-3.83;100.00
61900;BME280;47853;55.890;37.664;2023-01-26T03:38:18;99829.09;;;-3.61;100.00
61900;BME280;47853;55.890;37.664;2023-01-26T03:40:43;99825.78;;;-3.65;100.00
61900;BME280;47853;55.890;37.664;2023-01-26T03:43:08;99818.13;;;-3.68;100.00
61900;BME280;47853;55.890;37.664;2023-01-26T03:45:34;99800.03;;;-3.90;100.00
61900;BME280;47853;55.890;37.664;2023-01-26T03:48:07;99826.97;;;-3.72;100.00
61900;BME280;47853;55.890;37.664;2023-01-26T03:50:33;99828.72;;;-3.72;100.00
61900;BME280;47853;55.890;37.664;2023-01-26T03:52:58;99838.72;;;-3.63;100.00
61900;BME280;47853;55.890;37.664;2023-01-26T03:55:23;99833.91;;;-3.72;100.00
61900;BME280;47853;55.890;37.664;2023-01-26T03:57:49;99818.78;;;-3.62;100.00
61900;BME280;47853;55.890;37.664;2023-01-26T04:00:14;99833.53;;;-3.63;100.00
61900;BME280;47853;55.890;37.664;2023-01-26T04:02:40;99835.22;;;-3.62;100.00
61900;BME280;47853;55.890;37.664;2023-01-26T04:05:06;99837.28;;;-3.70;100.00
61900;BME280;47853;55.890;37.664;2023-01-26T04:07:31;99845.22;;;-3.73;100.00
61900;BME280;47853;55.890;37.664;2023-01-26T04:09:57;99848.81;;;-3.57;100.00
61900;BME280;47853;55.890;37.664;2023-01-26T04:12:22;99848.88;;;-3.58;100.00
61900;BME280;47853;55.890;37.664;2023-01-26T04:14:47;99828.84;;;-3.75;100.00
61900;BME280;47853;55.890;37.664;2023-01-26T04:17:16;99831.31;;;-3.72;100.00
61900;BME280;47853;55.890;37.664;2023-01-26T04:19:41;99830.56;;;-3.55;100.00
61900;BME280;47853;55.890;37.664;2023-01-26T04:22:06;99825.38;;;-3.55;100.00
61900;BME280;47853;55.890;37.664;2023-01-26T04:24:32;99840.53;;;-3.65;100.00
61900;BME280;47853;55.890;37.664;2023-01-26T04:26:57;99844.28;;;-3.52;100.00
61900;BME280;47853;55.890;37.664;2023-01-26T04:29:22;99826.50;;;-3.61;100.00
61900;BME280;47853;55.890;37.664;2023-01-26T04:31:48;99813.13;;;-3.52;100.00
61900;BME280;47853;55.890;37.664;2023-01-26T04:34:19;99842.53;;;-3.51;100.00
61900;BME280;47853;55.890;37.664;2023-01-26T04:36:45;99826.56;;;-3.42;100.00
61900;BME280;47853;55.890;37.664;2023-01-26T04:39:10;99814.81;;;-3.51;100.00
61900;BME280;47853;55.890;37.664;2023-01-26T04:41:36;99819.94;;;-3.49;100.00
61900;BME280;47853;55.890;37.664;2023-01-26T04:44:01;99826.69;;;-3.45;100.00
61900;BME280;47853;55.890;37.664;2023-01-26T04:46:26;99830.47;;;-3.52;100.00
61900;BME280;47853;55.890;37.664;2023-01-26T04:48:52;99816.97;;;-3.81;100.00
61900;BME280;47853;55.890;37.664;2023-01-26T04:51:19;99803.53;;;-3.70;100.00
61900;BME280;47853;55.890;37.664;2023-01-26T04:53:45;99822.94;;;-3.39;100.00
61900;BME280;47853;55.890;37.664;2023-01-26T04:56:20;99831.44;;;-3.55;100.00
61900;BME280;47853;55.890;37.664;2023-01-26T04:58:46;99821.94;;;-3.56;100.00
61900;BME280;47853;55.890;37.664;2023-01-26T05:01:11;99826.41;;;-3.59;100.00
61900;BME280;47853;55.890;37.664;2023-01-26T05:03:37;99828.97;;;-3.58;100.00
61900;BME280;47853;55.890;37.664;2023-01-26T05:06:02;99812.94;;;-3.68;100.00
61900;BME280;47853;55.890;37.664;2023-01-26T05:08:27;99802.31;;;-3.82;100.00
61900;BME280;47853;55.890;37.664;2023-01-26T05:10:53;99803.97;;;-3.60;100.00
61900;BME280;47853;55.890;37.664;2023-01-26T05:13:18;99815.41;;;-3.65;100.00
61900;BME280;47853;55.890;37.664;2023-01-26T05:15:43;99821.28;;;-3.40;100.00
61900;BME280;47853;55.890;37.664;2023-01-26T05:18:09;99789.34;;;-3.42;100.00
61900;BME280;47853;55.890;37.664;2023-01-26T05:20:35;99790.50;;;-3.29;100.00
61900;BME280;47853;55.890;37.664;2023-01-26T05:23:00;99814.34;;;-3.40;100.00
61900;BME280;47853;55.890;37.664;2023-01-26T05:25:25;99802.59;;;-3.48;100.00
61900;BME280;47853;55.890;37.664;2023-01-26T05:27:51;99804.50;;;-3.52;100.00
61900;BME280;47853;55.890;37.664;2023-01-26T05:30:16;99803.19;;;-3.62;100.00
61900;BME280;47853;55.890;37.664;2023-01-26T05:32:41;99821.22;;;-3.39;100.00
61900;BME280;47853;55.890;37.664;2023-01-26T05:35:07;99824.28;;;-3.50;100.00
61900;BME280;47853;55.890;37.664;2023-01-26T05:37:33;99820.09;;;-3.33;100.00
61900;BME280;47853;55.890;37.664;2023-01-26T05:39:58;99829.16;;;-3.42;100.00
61900;BME280;47853;55.890;37.664;2023-01-26T05:42:24;99820.72;;;-3.68;100.00
61900;BME280;47853;55.890;37.664;2023-01-26T05:44:50;99820.56;;;-3.44;100.00
61900;BME280;47853;55.890;37.664;2023-01-26T05:47:16;99827.66;;;-3.47;100.00
61900;BME280;47853;55.890;37.664;2023-01-26T05:49:42;99826.50;;;-3.61;100.00
61900;BME280;47853;55.890;37.664;2023-01-26T05:52:09;99821.03;;;-3.55;100.00
61900;BME280;47853;55.890;37.664;2023-01-26T05:54:34;99822.59;;;-3.51;100.00
61900;BME280;47853;55.890;37.664;2023-01-26T05:56:59;99813.25;;;-3.55;100.00
61900;BME280;47853;55.890;37.664;2023-01-26T05:59:25;99808.97;;;-3.56;100.00
61900;BME280;47853;55.890;37.664;2023-01-26T06:01:50;99811.13;;;-3.66;100.00
61900;BME280;47853;55.890;37.664;2023-01-26T06:04:15;99823.69;;;-3.56;100.00
61900;BME280;47853;55.890;37.664;2023-01-26T06:06:41;99806.03;;;-3.48;100.00
61900;BME280;47853;55.890;37.664;2023-01-26T06:09:06;99814.63;;;-3.67;100.00
61900;BME280;47853;55.890;37.664;2023-01-26T06:11:32;99803.44;;;-3.48;100.00
61900;BME280;47853;55.890;37.664;2023-01-26T06:13:57;99801.22;;;-3.57;100.00
61900;BME280;47853;55.890;37.664;2023-01-26T06:16:22;99794.81;;;-3.48;100.00
61900;BME280;47853;55.890;37.664;2023-01-26T06:18:48;99793.13;;;-3.50;100.00
61900;BME280;47853;55.890;37.664;2023-01-26T06:21:13;99784.75;;;-3.56;100.00
61900;BME280;47853;55.890;37.664;2023-01-26T06:23:38;99787.72;;;-3.45;100.00
61900;BME280;47853;55.890;37.664;2023-01-26T06:26:04;99785.00;;;-3.42;100.00
61900;BME280;47853;55.890;37.664;2023-01-26T06:28:29;99799.50;;;-3.57;100.00
61900;BME280;47853;55.890;37.664;2023-01-26T06:30:59;99790.59;;;-3.51;100.00
61900;BME280;47853;55.890;37.664;2023-01-26T06:33:25;99799.09;;;-3.47;100.00
61900;BME280;47853;55.890;37.664;2023-01-26T06:35:50;99786.72;;;-3.42;100.00
61900;BME280;47853;55.890;37.664;2023-01-26T06:38:15;99780.59;;;-3.60;100.00
61900;BME280;47853;55.890;37.664;2023-01-26T06:40:41;99757.88;;;-3.55;100.00
61900;BME280;47853;55.890;37.664;2023-01-26T06:43:06;99790.59;;;-3.51;100.00
61900;BME280;47853;55.890;37.664;2023-01-26T06:45:31;99811.44;;;-3.53;100.00
61900;BME280;47853;55.890;37.664;2023-01-26T06:47:57;99796.06;;;-3.38;100.00
61900;BME280;47853;55.890;37.664;2023-01-26T06:50:25;99789.34;;;-3.42;100.00
61900;BME280;47853;55.890;37.664;2023-01-26T06:52:58;99789.00;;;-3.35;100.00
61900;BME280;47853;55.890;37.664;2023-01-26T06:55:37;99789.28;;;-3.22;100.00
61900;BME280;47853;55.890;37.664;2023-01-26T06:58:03;99778.66;;;-3.17;100.00
61900;BME280;47853;55.890;37.664;2023-01-26T07:00:28;99792.09;;;-3.07;100.00
61900;BME280;47853;55.890;37.664;2023-01-26T07:02:53;99796.28;;;-3.43;100.00
61900;BME280;47853;55.890;37.664;2023-01-26T07:05:19;99781.19;;;-3.54;100.00
61900;BME280;47853;55.890;37.664;2023-01-26T07:07:44;99772.94;;;-3.24;100.00
61900;BME280;47853;55.890;37.664;2023-01-26T07:10:10;99785.69;;;-3.19;100.00
61900;BME280;47853;55.890;37.664;2023-01-26T07:12:43;99809.84;;;-3.36;100.00
61900;BME280;47853;55.890;37.664;2023-01-26T07:15:10;99791.59;;;-3.35;100.00
61900;BME280;47853;55.890;37.664;2023-01-26T07:17:38;99780.50;;;-3.38;100.00
61900;BME280;47853;55.890;37.664;2023-01-26T07:20:04;99773.31;;;-3.33;100.00
61900;BME280;47853;55.890;37.664;2023-01-26T07:22:29;99772.38;;;-3.11;100.00
61900;BME280;47853;55.890;37.664;2023-01-26T07:24:54;99808.59;;;-3.27;100.00
61900;BME280;47853;55.890;37.664;2023-01-26T07:27:20;99789.47;;;-3.45;100.00
61900;BME280;47853;55.890;37.664;2023-01-26T07:29:45;99799.69;;;-3.22;100.00
61900;BME280;47853;55.890;37.664;2023-01-26T07:32:11;99782.03;;;-3.34;100.00
61900;BME280;47853;55.890;37.664;2023-01-26T07:34:36;99782.59;;;-3.27;100.00
61900;BME280;47853;55.890;37.664;2023-01-26T07:37:01;99789.44;;;-3.25;100.00
61900;BME280;47853;55.890;37.664;2023-01-26T07:39:27;99788.38;;;-3.21;100.00
61900;BME280;47853;55.890;37.664;2023-01-26T07:41:52;99786.13;;;-3.09;100.00
61900;BME280;47853;55.890;37.664;2023-01-26T07:44:17;99777.84;;;-3.17;100.00
61900;BME280;47853;55.890;37.664;2023-01-26T07:46:43;99798.19;;;-3.27;100.00
61900;BME280;47853;55.890;37.664;2023-01-26T07:49:08;99787.03;;;-3.10;100.00
61900;BME280;47853;55.890;37.664;2023-01-26T07:51:33;99790.06;;;-3.19;100.00
61900;BME280;47853;55.890;37.664;2023-01-26T07:53:59;99789.91;;;-3.16;100.00
61900;BME280;47853;55.890;37.664;2023-01-26T07:56:24;99777.69;;;-3.33;100.00
61900;BME280;47853;55.890;37.664;2023-01-26T07:58:50;99776.06;;;-3.17;100.00
61900;BME280;47853;55.890;37.664;2023-01-26T08:01:17;99787.81;;;-3.08;100.00
61900;BME280;47853;55.890;37.664;2023-01-26T08:03:43;99780.78;;;-3.06;100.00
61900;BME280;47853;55.890;37.664;2023-01-26T08:06:08;99777.97;;;-3.01;100.00
61900;BME280;47853;55.890;37.664;2023-01-26T08:08:34;99765.19;;;-3.06;100.00
61900;BME280;47853;55.890;37.664;2023-01-26T08:11:00;99789.34;;;-3.04;100.00
61900;BME280;47853;55.890;37.664;2023-01-26T08:13:26;99770.56;;;-2.92;100.00
61900;BME280;47853;55.890;37.664;2023-01-26T08:15:52;99778.13;;;-3.04;100.00
61900;BME280;47853;55.890;37.664;2023-01-26T08:18:17;99762.09;;;-2.95;100.00
61900;BME280;47853;55.890;37.664;2023-01-26T08:20:53;99754.31;;;-2.95;100.00
61900;BME280;47853;55.890;37.664;2023-01-26T08:23:19;99771.00;;;-2.82;100.00
61900;BME280;47853;55.890;37.664;2023-01-26T08:25:45;99765.13;;;-2.68;100.00
61900;BME280;47853;55.890;37.664;2023-01-26T08:28:10;99759.47;;;-2.76;100.00
61900;BME280;47853;55.890;37.664;2023-01-26T08:30:35;99750.72;;;-2.56;100.00
61900;BME280;47853;55.890;37.664;2023-01-26T08:33:02;99758.56;;;-2.57;100.00
61900;BME280;47853;55.890;37.664;2023-01-26T08:35:31;99763.59;;;-2.72;100.00
61900;BME280;47853;55.890;37.664;2023-01-26T08:37:56;99752.44;;;-2.56;100.00
61900;BME280;47853;55.890;37.664;2023-01-26T08:40:22;99753.06;;;-2.69;100.00
61900;BME280;47853;55.890;37.664;2023-01-26T08:42:47;99750.59;;;-2.72;100.00
61900;BME280;47853;55.890;37.664;2023-01-26T08:45:15;99754.44;;;-2.62;100.00
61900;BME280;47853;55.890;37.664;2023-01-26T08:47:40;99744.13;;;-2.63;100.00
61900;BME280;47853;55.890;37.664;2023-01-26T08:50:06;99752.97;;;-2.67;100.00
61900;BME280;47853;55.890;37.664;2023-01-26T08:52:32;99746.94;;;-2.68;100.00
61900;BME280;47853;55.890;37.664;2023-01-26T08:54:57;99714.97;;;-2.70;100.00
61900;BME280;47853;55.890;37.664;2023-01-26T08:57:22;99747.72;;;-2.66;100.00
61900;BME280;47853;55.890;37.664;2023-01-26T08:59:48;99744.59;;;-2.55;100.00
61900;BME280;47853;55.890;37.664;2023-01-26T09:02:13;99736.94;;;-2.58;100.00
61900;BME280;47853;55.890;37.664;2023-01-26T09:04:38;99741.53;;;-2.45;100.00
61900;BME280;47853;55.890;37.664;2023-01-26T09:07:04;99727.97;;;-2.70;100.00
61900;BME280;47853;55.890;37.664;2023-01-26T09:09:29;99727.66;;;-2.46;100.00
61900;BME280;47853;55.890;37.664;2023-01-26T09:11:55;99741.38;;;-2.25;100.00
61900;BME280;47853;55.890;37.664;2023-01-26T09:14:20;99734.28;;;-2.39;100.00
61900;BME280;47853;55.890;37.664;2023-01-26T09:16:45;99734.28;;;-2.39;100.00
61900;BME280;47853;55.890;37.664;2023-01-26T09:19:11;99748.06;;;-2.73;100.00
61900;BME280;47853;55.890;37.664;2023-01-26T09:21:36;99724.59;;;-2.72;100.00
61900;BME280;47853;55.890;37.664;2023-01-26T09:24:02;99728.03;;;-2.71;100.00
61900;BME280;47853;55.890;37.664;2023-01-26T09:26:28;99748.13;;;-2.56;100.00
61900;BME280;47853;55.890;37.664;2023-01-26T09:28:53;99711.50;;;-2.88;100.00
61900;BME280;47853;55.890;37.664;2023-01-26T09:31:22;99735.00;;;-2.72;100.00
61900;BME280;47853;55.890;37.664;2023-01-26T09:33:48;99745.63;;;-2.77;100.00
61900;BME280;47853;55.890;37.664;2023-01-26T09:36:14;99728.81;;;-2.69;100.00
61900;BME280;47853;55.890;37.664;2023-01-26T09:38:43;99723.38;;;-2.82;100.00
61900;BME280;47853;55.890;37.664;2023-01-26T09:41:42;99742.97;;;-2.57;100.00
61900;BME280;47853;55.890;37.664;2023-01-26T09:44:21;99704.56;;;-2.70;100.00
61900;BME280;47853;55.890;37.664;2023-01-26T09:47:04;99687.19;;;-2.69;100.00
61900;BME280;47853;55.890;37.664;2023-01-26T09:52:20;99738.22;;;-2.67;100.00
61900;BME280;47853;55.890;37.664;2023-01-26T09:54:52;99741.53;;;-2.45;100.00
61900;BME280;47853;55.890;37.664;2023-01-26T09:57:40;99736.94;;;-2.23;100.00
61900;BME280;47853;55.890;37.664;2023-01-26T10:00:17;99726.91;;;-2.48;100.00
61900;BME280;47853;55.890;37.664;2023-01-26T10:03:02;99732.28;;;-2.16;100.00
61900;BME280;47853;55.890;37.664;2023-01-26T10:08:20;99723.16;;;-2.42;100.00
61900;BME280;47853;55.890;37.664;2023-01-26T10:10:59;99725.84;;;-2.26;100.00
61900;BME280;47853;55.890;37.664;2023-01-26T10:13:27;99708.34;;;-2.58;100.00
61900;BME280;47853;55.890;37.664;2023-01-26T10:15:58;99729.56;;;-2.67;100.00
61900;BME280;47853;55.890;37.664;2023-01-26T10:18:29;99715.59;;;-2.47;100.00
61900;BME280;47853;55.890;37.664;2023-01-26T10:20:58;99715.38;;;-2.60;100.00
61900;BME280;47853;55.890;37.664;2023-01-26T10:23:28;99714.75;;;-2.48;100.00
61900;BME280;47853;55.890;37.664;2023-01-26T10:26:01;99694.78;;;-2.65;100.00
61900;BME280;47853;55.890;37.664;2023-01-26T10:28:34;99684.53;;;-2.68;100.00
61900;BME280;47853;55.890;37.664;2023-01-26T10:31:02;99689.28;;;-2.58;100.00
61900;BME280;47853;55.890;37.664;2023-01-26T10:33:33;99709.09;;;-2.56;100.00
61900;BME280;47853;55.890;37.664;2023-01-26T10:36:06;99699.22;;;-2.49;100.00
61900;BME280;47853;55.890;37.664;2023-01-26T10:41:03;99702.66;;;-2.49;100.00
61900;BME280;47853;55.890;37.664;2023-01-26T10:43:36;99695.34;;;-2.58;100.00
61900;BME280;47853;55.890;37.664;2023-01-26T10:46:04;99684.69;;;-2.71;100.00
61900;BME280;47853;55.890;37.664;2023-01-26T10:48:29;99678.13;;;-2.78;100.00
61900;BME280;47853;55.890;37.664;2023-01-26T10:51:13;99678.13;;;-2.60;100.00
61900;BME280;47853;55.890;37.664;2023-01-26T10:53:39;99692.88;;;-2.61;100.00
61900;BME280;47853;55.890;37.664;2023-01-26T10:56:11;99667.47;;;-2.73;100.00
61900;BME280;47853;55.890;37.664;2023-01-26T11:01:05;99670.47;;;-2.64;100.00
61900;BME280;47853;55.890;37.664;2023-01-26T11:03:38;99659.75;;;-2.57;100.00
61900;BME280;47853;55.890;37.664;2023-01-26T11:06:10;99631.69;;;-2.86;100.00
61900;BME280;47853;55.890;37.664;2023-01-26T11:08:38;99670.44;;;-2.46;100.00
61900;BME280;47853;55.890;37.664;2023-01-26T11:11:04;99661.81;;;-2.46;100.00
61900;BME280;47853;55.890;37.664;2023-01-26T11:13:30;99609.28;;;-2.88;100.00
61900;BME280;47853;55.890;37.664;2023-01-26T11:16:19;99663.97;;;-2.55;100.00
61900;BME280;47853;55.890;37.664;2023-01-26T11:18:59;99650.25;;;-2.23;100.00
61900;BME280;47853;55.890;37.664;2023-01-26T11:21:47;99644.34;;;-2.27;100.00
61900;BME280;47853;55.890;37.664;2023-01-26T11:24:33;99638.63;;;-2.34;100.00
61900;BME280;47853;55.890;37.664;2023-01-26T11:38:21;99637.38;;;-2.26;100.00
61900;BME280;47853;55.890;37.664;2023-01-26T11:44:27;99641.94;;;-2.14;100.00
61900;BME280;47853;55.890;37.664;2023-01-26T12:02:36;99650.56;;;-2.47;100.00
61900;BME280;47853;55.890;37.664;2023-01-26T12:05:21;99625.94;;;-2.57;100.00
61900;BME280;47853;55.890;37.664;2023-01-26T12:08:10;99655.69;;;-2.45;100.00
61900;BME280;47853;55.890;37.664;2023-01-26T12:10:42;99649.19;;;-2.54;100.00
61900;BME280;47853;55.890;37.664;2023-01-26T12:13:31;99646.06;;;-2.43;100.00
61900;BME280;47853;55.890;37.664;2023-01-26T12:16:13;99646.69;;;-2.56;100.00
61900;BME280;47853;55.890;37.664;2023-01-26T12:21:44;99666.25;;;-2.66;100.00
61900;BME280;47853;55.890;37.664;2023-01-26T12:24:27;99651.47;;;-2.48;100.00
61900;BME280;47853;55.890;37.664;2023-01-26T12:26:57;99635.88;;;-2.30;100.00
61900;BME280;47853;55.890;37.664;2023-01-26T12:29:50;99656.69;;;-2.48;100.00
61900;BME280;47853;55.890;37.664;2023-01-26T12:32:17;99641.72;;;-2.43;100.00
61900;BME280;47853;55.890;37.664;2023-01-26T12:34:42;99639.25;;;-2.64;100.00
61900;BME280;47853;55.890;37.664;2023-01-26T12:40:20;99625.56;;;-2.50;100.00
61900;BME280;47853;55.890;37.664;2023-01-26T12:43:14;99634.66;;;-2.41;100.00
61900;BME280;47853;55.890;37.664;2023-01-26T12:45:47;99643.84;;;-2.51;100.00
61900;BME280;47853;55.890;37.664;2023-01-26T12:48:22;99632.03;;;-2.23;100.00
61900;BME280;47853;55.890;37.664;2023-01-26T12:51:01;99654.06;;;-2.48;100.00
61900;BME280;47853;55.890;37.664;2023-01-26T12:53:34;99646.59;;;-2.37;100.00
61900;BME280;47853;55.890;37.664;2023-01-26T12:58:43;99644.97;;;-2.39;100.00
61900;BME280;47853;55.890;37.664;2023-01-26T13:01:15;99635.72;;;-2.45;100.00
61900;BME280;47853;55.890;37.664;2023-01-26T13:03:54;99634.66;;;-2.41;100.00
61900;BME280;47853;55.890;37.664;2023-01-26T13:06:25;99643.50;;;-2.45;100.00
61900;BME280;47853;55.890;37.664;2023-01-26T13:11:58;99652.66;;;-2.54;100.00
61900;BME280;47853;55.890;37.664;2023-01-26T13:14:31;99655.78;;;-2.65;100.00
61900;BME280;47853;55.890;37.664;2023-01-26T13:27:57;99646.28;;;-2.30;100.00
61900;BME280;47853;55.890;37.664;2023-01-26T13:35:16;99668.41;;;-2.57;100.00
61900;BME280;47853;55.890;37.664;2023-01-26T13:40:21;99652.56;;;-2.35;100.00
61900;BME280;47853;55.890;37.664;2023-01-26T13:42:55;99663.78;;;-2.34;100.00
61900;BME280;47853;55.890;37.664;2023-01-26T13:47:52;99655.69;;;-2.45;100.00
61900;BME280;47853;55.890;37.664;2023-01-26T13:52:46;99638.09;;;-2.40;100.00
61900;BME280;47853;55.890;37.664;2023-01-26T13:55:19;99644.13;;;-2.22;100.00
61900;BME280;47853;55.890;37.664;2023-01-26T13:57:46;99640.09;;;-2.45;100.00
61900;BME280;47853;55.890;37.664;2023-01-26T14:00:12;99619.34;;;-2.47;100.00
61900;BME280;47853;55.890;37.664;2023-01-26T14:02:38;99648.97;;;-2.50;100.00
61900;BME280;47853;55.890;37.664;2023-01-26T14:05:03;99637.88;;;-2.53;100.00